sensor_id;sensor_type;location;lat;lon;timestamp;pressure;altitude;pressure_sealevel;temperature;humidity
48614;BME280;34408;51.426;5.444;2023-02-19T00:01:36;101775.97;;;11.26;75.11
48614;BME280;34408;51.426;5.444;2023-02-19T00:04:05;101772.44;;;11.26;75.11
48614;BME280;34408;51.426;5.444;2023-02-19T00:06:34;101778.03;;;11.24;75.23
48614;BME280;34408;51.426;5.444;2023-02-19T00:09:02;101782.56;;;11.24;74.98
48614;BME280;34408;51.426;5.444;2023-02-19T00:11:33;101784.44;;;11.23;75.06
48614;BME280;34408;51.426;5.444;2023-02-19T00:14:02;101781.75;;;11.23;75.26
48614;BME280;34408;51.426;5.444;2023-02-19T00:16:32;101770.56;;;11.20;75.11
48614;BME280;34408;51.426;5.444;2023-02-19T00:19:01;101787.97;;;11.24;75.04
48614;BME280;34408;51.426;5.444;2023-02-19T00:21:30;101782.56;;;11.24;75.12
48614;BME280;34408;51.426;5.444;2023-02-19T00:24:00;101787.13;;;11.23;75.13
48614;BME280;34408;51.426;5.444;2023-02-19T00:26:28;101783.81;;;11.21;75.29
48614;BME280;34408;51.426;5.444;2023-02-19T00:28:58;101784.63;;;11.22;75.25
48614;BME280;34408;51.426;5.444;2023-02-19T00:31:28;101787.34;;;11.22;75.04
48614;BME280;34408;51.426;5.444;2023-02-19T00:34:00;101784.63;;;11.22;74.99
48614;BME280;34408;51.426;5.444;2023-02-19T00:36:29;101783.59;;;11.23;75.17
48614;BME280;34408;51.426;5.444;2023-02-19T00:38:57;101788.16;;;11.22;75.09
48614;BME280;34408;51.426;5.444;2023-02-19T00:41:25;101788.16;;;11.22;75.07
48614;BME280;34408;51.426;5.444;2023-02-19T00:43:55;101779.25;;;11.22;74.81
48614;BME280;34408;51.426;5.444;2023-02-19T00:46:26;101776.56;;;11.22;74.70
48614;BME280;34408;51.426;5.444;2023-02-19T00:48:56;101780.28;;;11.21;74.49
48614;BME280;34408;51.426;5.444;2023-02-19T00:51:25;101778.63;;;11.20;74.56
48614;BME280;34408;51.426;5.444;2023-02-19T00:53:53;101786.09;;;11.18;74.38
48614;BME280;34408;51.426;5.444;2023-02-19T00:56:21;101785.06;;;11.19;74.36
48614;BME280;34408;51.426;5.444;2023-02-19T00:58:50;101788.78;;;11.18;74.30
48614;BME280;34408;51.426;5.444;2023-02-19T01:01:18;101789.81;;;11.17;74.35
48614;BME280;34408;51.426;5.444;2023-02-19T01:03:47;101789.81;;;11.17;74.15
48614;BME280;34408;51.426;5.444;2023-02-19T01:06:17;101795.19;;;11.17;73.99
48614;BME280;34408;51.426;5.444;2023-02-19T01:08:46;101799.75;;;11.16;74.18
48614;BME280;34408;51.426;5.444;2023-02-19T01:11:14;101797.25;;;11.15;74.12
48614;BME280;34408;51.426;5.444;2023-02-19T01:13:42;101785.44;;;11.16;73.95
48614;BME280;34408;51.426;5.444;2023-02-19T01:16:12;101787.50;;;11.14;73.77
48614;BME280;34408;51.426;5.444;2023-02-19T01:18:40;101796.22;;;11.16;73.91
48614;BME280;34408;51.426;5.444;2023-02-19T01:21:12;101783.78;;;11.15;73.75
48614;BME280;34408;51.426;5.444;2023-02-19T01:23:40;101802.63;;;11.15;73.76
48614;BME280;34408;51.426;5.444;2023-02-19T01:26:12;101801.81;;;11.14;73.60
48614;BME280;34408;51.426;5.444;2023-02-19T01:28:40;101805.31;;;11.15;73.55
48614;BME280;34408;51.426;5.444;2023-02-19T01:31:11;101804.50;;;11.14;73.53
48614;BME280;34408;51.426;5.444;2023-02-19T01:33:43;101809.03;;;11.14;73.61
48614;BME280;34408;51.426;5.444;2023-02-19T01:36:14;101807.19;;;11.14;73.55
48614;BME280;34408;51.426;5.444;2023-02-19T01:38:42;101812.75;;;11.13;73.50
48614;BME280;34408;51.426;5.444;2023-02-19T01:41:13;101814.63;;;11.12;73.55
48614;BME280;34408;51.426;5.444;2023-02-19T01:43:59;101814.63;;;11.12;73.41
48614;BME280;34408;51.426;5.444;2023-02-19T01:46:28;101816.06;;;11.08;73.42
48614;BME280;34408;51.426;5.444;2023-02-19T01:48:59;101814.00;;;11.10;73.26
48614;BME280;34408;51.426;5.444;2023-02-19T01:51:32;101823.94;;;11.09;73.14
48614;BME280;34408;51.426;5.444;2023-02-19T01:54:04;101822.06;;;11.10;73.37
48614;BME280;34408;51.426;5.444;2023-02-19T01:56:35;101820.41;;;11.09;73.07
48614;BME280;34408;51.426;5.444;2023-02-19T01:59:05;101818.53;;;11.09;72.97
48614;BME280;34408;51.426;5.444;2023-02-19T02:01:34;101823.09;;;11.09;73.00
48614;BME280;34408;51.426;5.444;2023-02-19T02:04:04;101818.75;;;11.08;73.01
48614;BME280;34408;51.426;5.444;2023-02-19T02:06:38;101811.72;;;11.07;72.86
48614;BME280;34408;51.426;5.444;2023-02-19T02:09:08;101807.97;;;11.08;72.77
48614;BME280;34408;51.426;5.444;2023-02-19T02:11:54;101811.50;;;11.08;72.72
48614;BME280;34408;51.426;5.444;2023-02-19T02:14:25;101800.94;;;11.07;72.30
48614;BME280;34408;51.426;5.444;2023-02-19T02:17:00;101809.22;;;11.05;72.73
48614;BME280;34408;51.426;5.444;2023-02-19T02:19:49;101807.34;;;11.06;72.49
48614;BME280;34408;51.426;5.444;2023-02-19T02:22:28;101814.41;;;11.07;72.50
48614;BME280;34408;51.426;5.444;2023-02-19T02:25:27;101801.78;;;11.07;72.52
48614;BME280;34408;51.426;5.444;2023-02-19T02:28:06;101817.91;;;11.07;72.45
48614;BME280;34408;51.426;5.444;2023-02-19T02:30:43;101818.94;;;11.06;72.44
48614;BME280;34408;51.426;5.444;2023-02-19T02:33:18;101811.91;;;11.05;72.24
48614;BME280;34408;51.426;5.444;2023-02-19T02:35:50;101819.97;;;11.05;72.46
48614;BME280;34408;51.426;5.444;2023-02-19T02:38:21;101818.31;;;11.04;72.41
48614;BME280;34408;51.426;5.444;2023-02-19T02:40:51;101817.69;;;11.02;72.30
48614;BME280;34408;51.426;5.444;2023-02-19T02:43:18;101818.53;;;11.03;72.31
48614;BME280;34408;51.426;5.444;2023-02-19T02:45:48;101819.56;;;11.02;72.20
48614;BME280;34408;51.426;5.444;2023-02-19T02:48:22;101815.00;;;11.02;72.27
48614;BME280;34408;51.426;5.444;2023-02-19T02:50:53;101833.84;;;11.02;72.55
48614;BME280;34408;51.426;5.444;2023-02-19T02:53:25;101821.22;;;11.03;72.09
48614;BME280;34408;51.426;5.444;2023-02-19T02:56:14;101821.41;;;11.01;72.24
48614;BME280;34408;51.426;5.444;2023-02-19T02:58:43;101841.06;;;11.02;72.48
48614;BME280;34408;51.426;5.444;2023-02-19T03:01:15;101833.19;;;11.00;72.70
48614;BME280;34408;51.426;5.444;2023-02-19T03:04:06;101837.31;;;10.96;72.92
48614;BME280;34408;51.426;5.444;2023-02-19T03:06:35;101838.97;;;10.97;72.76
48614;BME280;34408;51.426;5.444;2023-02-19T03:09:08;101843.31;;;10.98;72.66
48614;BME280;34408;51.426;5.444;2023-02-19T03:11:40;101840.84;;;10.97;72.89
48614;BME280;34408;51.426;5.444;2023-02-19T03:14:31;101846.22;;;10.97;73.02
48614;BME280;34408;51.426;5.444;2023-02-19T03:17:23;101841.03;;;10.95;72.97
48614;BME280;34408;51.426;5.444;2023-02-19T03:20:13;101862.56;;;10.95;73.18
48614;BME280;34408;51.426;5.444;2023-02-19T03:22:43;101859.88;;;10.95;73.07
48614;BME280;34408;51.426;5.444;2023-02-19T03:25:16;101850.97;;;10.95;73.14
48614;BME280;34408;51.426;5.444;2023-02-19T03:28:06;101853.44;;;10.90;73.11
48614;BME280;34408;51.426;5.444;2023-02-19T03:30:37;101860.06;;;10.94;72.96
48614;BME280;34408;51.426;5.444;2023-02-19T03:33:10;101863.78;;;10.93;72.95
48614;BME280;34408;51.426;5.444;2023-02-19T03:35:43;101864.19;;;10.90;72.98
48614;BME280;34408;51.426;5.444;2023-02-19T03:38:16;101860.88;;;10.88;73.00
48614;BME280;34408;51.426;5.444;2023-02-19T03:40:52;101862.72;;;10.87;72.88
48614;BME280;34408;51.426;5.444;2023-02-19T03:43:23;101862.53;;;10.89;72.89
48614;BME280;34408;51.426;5.444;2023-02-19T03:45:58;101868.72;;;10.89;72.83
48614;BME280;34408;51.426;5.444;2023-02-19T03:48:32;101867.91;;;10.89;72.59
48614;BME280;34408;51.426;5.444;2023-02-19T03:51:07;101878.47;;;10.90;72.87
48614;BME280;34408;51.426;5.444;2023-02-19T03:53:48;101872.25;;;10.90;72.63
48614;BME280;34408;51.426;5.444;2023-02-19T03:56:21;101879.50;;;10.89;72.51
48614;BME280;34408;51.426;5.444;2023-02-19T03:58:57;101888.38;;;10.90;72.40
48614;BME280;34408;51.426;5.444;2023-02-19T04:01:29;101887.56;;;10.89;72.41
48614;BME280;34408;51.426;5.444;2023-02-19T04:04:08;101892.09;;;10.89;72.33
48614;BME280;34408;51.426;5.444;2023-02-19T04:06:38;101896.47;;;10.90;72.21
48614;BME280;34408;51.426;5.444;2023-02-19T04:09:10;101896.47;;;10.90;72.15
48614;BME280;34408;51.426;5.444;2023-02-19T04:11:40;101902.88;;;10.89;72.31
48614;BME280;34408;51.426;5.444;2023-02-19T04:14:12;101908.44;;;10.87;72.35
48614;BME280;34408;51.426;5.444;2023-02-19T04:16:46;101918.16;;;10.88;72.21
48614;BME280;34408;51.426;5.444;2023-02-19T04:19:19;101907.81;;;10.85;72.37
48614;BME280;34408;51.426;5.444;2023-02-19T04:21:48;101911.31;;;10.86;72.25
48614;BME280;34408;51.426;5.444;2023-02-19T04:24:21;101908.00;;;10.84;72.29
48614;BME280;34408;51.426;5.444;2023-02-19T04:26:49;101911.53;;;10.84;72.19
48614;BME280;34408;51.426;5.444;2023-02-19T04:29:17;101916.91;;;10.84;72.12
48614;BME280;34408;51.426;5.444;2023-02-19T04:31:45;101911.09;;;10.81;71.93
48614;BME280;34408;51.426;5.444;2023-02-19T04:34:12;101922.47;;;10.83;71.83
48614;BME280;34408;51.426;5.444;2023-02-19T04:36:41;101921.66;;;10.82;71.89
48614;BME280;34408;51.426;5.444;2023-02-19T04:39:09;101926.00;;;10.83;71.90
48614;BME280;34408;51.426;5.444;2023-02-19T04:41:37;101928.88;;;10.82;71.92
48614;BME280;34408;51.426;5.444;2023-02-19T04:44:05;101938.81;;;10.81;71.95
48614;BME280;34408;51.426;5.444;2023-02-19T04:46:32;101944.19;;;10.81;72.01
48614;BME280;34408;51.426;5.444;2023-02-19T04:49:00;101951.44;;;10.81;72.08
48614;BME280;34408;51.426;5.444;2023-02-19T04:51:28;101952.66;;;10.78;71.75
48614;BME280;34408;51.426;5.444;2023-02-19T04:53:57;101958.84;;;10.79;71.81
48614;BME280;34408;51.426;5.444;2023-02-19T04:56:25;101965.06;;;10.79;71.57
48614;BME280;34408;51.426;5.444;2023-02-19T04:58:52;101959.88;;;10.77;71.76
48614;BME280;34408;51.426;5.444;2023-02-19T05:01:20;101966.09;;;10.78;71.84
48614;BME280;34408;51.426;5.444;2023-02-19T05:03:48;101971.66;;;10.76;71.85
48614;BME280;34408;51.426;5.444;2023-02-19T05:06:16;101968.97;;;10.76;71.86
48614;BME280;34408;51.426;5.444;2023-02-19T05:08:44;101977.25;;;10.75;71.88
48614;BME280;34408;51.426;5.444;2023-02-19T05:11:13;101980.97;;;10.74;72.09
48614;BME280;34408;51.426;5.444;2023-02-19T05:13:40;101984.47;;;10.74;72.09
48614;BME280;34408;51.426;5.444;2023-02-19T05:16:09;101992.72;;;10.73;72.11
48614;BME280;34408;51.426;5.444;2023-02-19T05:18:39;102000.59;;;10.74;72.43
48614;BME280;34408;51.426;5.444;2023-02-19T05:21:09;101997.91;;;10.74;72.31
48614;BME280;34408;51.426;5.444;2023-02-19T05:23:38;102009.69;;;10.73;72.43
48614;BME280;34408;51.426;5.444;2023-02-19T05:26:06;102002.47;;;10.74;72.58
48614;BME280;34408;51.426;5.444;2023-02-19T05:28:36;102006.19;;;10.73;72.75
48614;BME280;34408;51.426;5.444;2023-02-19T05:31:05;102005.34;;;10.72;72.54
48614;BME280;34408;51.426;5.444;2023-02-19T05:33:34;102003.50;;;10.73;72.57
48614;BME280;34408;51.426;5.444;2023-02-19T05:36:05;102010.91;;;10.71;72.48
48614;BME280;34408;51.426;5.444;2023-02-19T05:38:33;102008.03;;;10.72;72.23
48614;BME280;34408;51.426;5.444;2023-02-19T05:41:10;102010.09;;;10.70;72.53
48614;BME280;34408;51.426;5.444;2023-02-19T05:43:40;102010.09;;;10.70;72.58
48614;BME280;34408;51.426;5.444;2023-02-19T05:46:12;102018.34;;;10.69;72.54
48614;BME280;34408;51.426;5.444;2023-02-19T05:48:41;102016.28;;;10.71;72.47
48614;BME280;34408;51.426;5.444;2023-02-19T05:51:11;102020.00;;;10.70;72.61
48614;BME280;34408;51.426;5.444;2023-02-19T05:53:40;102012.78;;;10.70;72.62
48614;BME280;34408;51.426;5.444;2023-02-19T05:56:23;102017.31;;;10.70;72.66
48614;BME280;34408;51.426;5.444;2023-02-19T05:58:53;102021.69;;;10.71;72.67
48614;BME280;34408;51.426;5.444;2023-02-19T06:01:24;102030.75;;;10.70;72.65
48614;BME280;34408;51.426;5.444;2023-02-19T06:03:52;102015.03;;;10.67;72.54
48614;BME280;34408;51.426;5.444;2023-02-19T06:06:23;102021.22;;;10.67;72.66
48614;BME280;34408;51.426;5.444;2023-02-19T06:08:52;102017.72;;;10.67;72.65
48614;BME280;34408;51.426;5.444;2023-02-19T06:11:20;102027.81;;;10.65;72.40
48614;BME280;34408;51.426;5.444;2023-02-19T06:13:48;102011.69;;;10.65;72.38
48614;BME280;34408;51.426;5.444;2023-02-19T06:16:18;102009.19;;;10.63;72.49
48614;BME280;34408;51.426;5.444;2023-02-19T06:18:47;102015.59;;;10.62;72.53
48614;BME280;34408;51.426;5.444;2023-02-19T06:21:17;102026.34;;;10.62;72.57
48614;BME280;34408;51.426;5.444;2023-02-19T06:23:45;102025.53;;;10.62;72.06
48614;BME280;34408;51.426;5.444;2023-02-19T06:26:15;102032.75;;;10.61;72.44
48614;BME280;34408;51.426;5.444;2023-02-19T06:28:45;102033.78;;;10.60;72.45
48614;BME280;34408;51.426;5.444;2023-02-19T06:31:13;102040.19;;;10.59;72.66
48614;BME280;34408;51.426;5.444;2023-02-19T06:33:43;102041.84;;;10.60;72.42
48614;BME280;34408;51.426;5.444;2023-02-19T06:36:14;102040.19;;;10.59;72.26
48614;BME280;34408;51.426;5.444;2023-02-19T06:38:42;102050.94;;;10.59;72.32
48614;BME280;34408;51.426;5.444;2023-02-19T06:41:10;102052.16;;;10.57;72.37
48614;BME280;34408;51.426;5.444;2023-02-19T06:43:39;102060.84;;;10.59;72.15
48614;BME280;34408;51.426;5.444;2023-02-19T06:46:11;102066.22;;;10.59;72.22
48614;BME280;34408;51.426;5.444;2023-02-19T06:48:40;102069.13;;;10.57;72.07
48614;BME280;34408;51.426;5.444;2023-02-19T06:51:10;102076.34;;;10.57;72.04
48614;BME280;34408;51.426;5.444;2023-02-19T06:53:39;102081.72;;;10.57;72.09
48614;BME280;34408;51.426;5.444;2023-02-19T06:56:20;102072.81;;;10.56;72.03
48614;BME280;34408;51.426;5.444;2023-02-19T06:58:49;102084.59;;;10.55;71.90
48614;BME280;34408;51.426;5.444;2023-02-19T07:01:17;102083.75;;;10.55;71.93
48614;BME280;34408;51.426;5.444;2023-02-19T07:03:44;102085.63;;;10.54;71.77
48614;BME280;34408;51.426;5.444;2023-02-19T07:06:14;102082.94;;;10.54;71.60
48614;BME280;34408;51.426;5.444;2023-02-19T07:08:41;102087.47;;;10.54;71.63
48614;BME280;34408;51.426;5.444;2023-02-19T07:11:09;102092.84;;;10.54;71.46
48614;BME280;34408;51.426;5.444;2023-02-19T07:13:37;102083.97;;;10.53;71.48
48614;BME280;34408;51.426;5.444;2023-02-19T07:16:08;102098.22;;;10.54;71.52
48614;BME280;34408;51.426;5.444;2023-02-19T07:18:37;102100.91;;;10.54;71.31
48614;BME280;34408;51.426;5.444;2023-02-19T07:21:08;102101.88;;;10.46;71.59
48614;BME280;34408;51.426;5.444;2023-02-19T07:23:38;102107.88;;;10.48;71.72
48614;BME280;34408;51.426;5.444;2023-02-19T07:26:08;102100.66;;;10.49;71.53
48614;BME280;34408;51.426;5.444;2023-02-19T07:28:36;102106.59;;;10.44;71.54
48614;BME280;34408;51.426;5.444;2023-02-19T07:31:04;102119.09;;;10.52;71.49
48614;BME280;34408;51.426;5.444;2023-02-19T07:33:31;102117.81;;;10.48;71.52
48614;BME280;34408;51.426;5.444;2023-02-19T07:35:59;102121.91;;;10.43;71.68
48614;BME280;34408;51.426;5.444;2023-02-19T07:38:27;102134.38;;;10.51;71.76
48614;BME280;34408;51.426;5.444;2023-02-19T07:40:58;102140.78;;;10.50;71.99
48614;BME280;34408;51.426;5.444;2023-02-19T07:43:28;102140.16;;;10.48;72.22
48614;BME280;34408;51.426;5.444;2023-02-19T07:45:56;102153.38;;;10.50;72.34
48614;BME280;34408;51.426;5.444;2023-02-19T07:48:24;102155.25;;;10.49;72.28
48614;BME280;34408;51.426;5.444;2023-02-19T07:50:52;102159.78;;;10.49;72.35
48614;BME280;34408;51.426;5.444;2023-02-19T07:53:21;102167.03;;;10.48;72.39
48614;BME280;34408;51.426;5.444;2023-02-19T07:55:49;102171.38;;;10.49;72.65
48614;BME280;34408;51.426;5.444;2023-02-19T07:58:18;102173.22;;;10.49;72.64
48614;BME280;34408;51.426;5.444;2023-02-19T08:00:46;102182.31;;;10.48;72.70
48614;BME280;34408;51.426;5.444;2023-02-19T08:03:14;102182.31;;;10.48;72.63
48614;BME280;34408;51.426;5.444;2023-02-19T08:05:41;102187.69;;;10.48;72.83
48614;BME280;34408;51.426;5.444;2023-02-19T08:08:12;102191.41;;;10.47;72.89
48614;BME280;34408;51.426;5.444;2023-02-19T08:10:40;102207.53;;;10.47;72.91
48614;BME280;34408;51.426;5.444;2023-02-19T08:13:28;102205.22;;;10.43;73.10
48614;BME280;34408;51.426;5.444;2023-02-19T08:16:09;102210.59;;;10.43;73.22
48614;BME280;34408;51.426;5.444;2023-02-19T08:18:49;102211.22;;;10.46;73.36
48614;BME280;34408;51.426;5.444;2023-02-19T08:21:17;102210.09;;;10.55;73.00
48614;BME280;34408;51.426;5.444;2023-02-19T08:23:46;102207.97;;;10.65;72.91
48614;BME280;34408;51.426;5.444;2023-02-19T08:26:17;102221.19;;;10.81;72.17
48614;BME280;34408;51.426;5.444;2023-02-19T08:28:47;102221.97;;;10.96;71.24
48614;BME280;34408;51.426;5.444;2023-02-19T08:31:15;102233.13;;;11.15;70.99
48614;BME280;34408;51.426;5.444;2023-02-19T08:33:43;102238.06;;;11.32;70.71
48614;BME280;34408;51.426;5.444;2023-02-19T08:36:11;102232.59;;;11.47;69.90
48614;BME280;34408;51.426;5.444;2023-02-19T08:38:39;102235.41;;;11.60;69.41
48614;BME280;34408;51.426;5.444;2023-02-19T08:41:09;102237.31;;;11.66;68.94
48614;BME280;34408;51.426;5.444;2023-02-19T08:43:38;102235.13;;;11.77;69.33
48614;BME280;34408;51.426;5.444;2023-02-19T08:46:08;102227.41;;;11.95;68.54
48614;BME280;34408;51.426;5.444;2023-02-19T08:48:37;102231.19;;;12.00;68.39
48614;BME280;34408;51.426;5.444;2023-02-19T08:51:07;102230.09;;;11.95;68.36
48614;BME280;34408;51.426;5.444;2023-02-19T08:53:38;102231.25;;;11.79;68.69
48614;BME280;34408;51.426;5.444;2023-02-19T08:56:07;102241.25;;;11.64;69.63
48614;BME280;34408;51.426;5.444;2023-02-19T08:58:36;102242.59;;;11.53;69.83
48614;BME280;34408;51.426;5.444;2023-02-19T09:01:08;102245.22;;;11.47;70.04
48614;BME280;34408;51.426;5.444;2023-02-19T09:03:37;102244.16;;;11.41;70.50
48614;BME280;34408;51.426;5.444;2023-02-19T09:06:05;102249.09;;;11.37;70.57
48614;BME280;34408;51.426;5.444;2023-02-19T09:08:33;102268.31;;;11.34;70.56
48614;BME280;34408;51.426;5.444;2023-02-19T09:11:02;102265.34;;;11.29;70.89
48614;BME280;34408;51.426;5.444;2023-02-19T09:13:32;102267.59;;;11.26;70.88
48614;BME280;34408;51.426;5.444;2023-02-19T09:16:01;102262.78;;;11.21;71.08
48614;BME280;34408;51.426;5.444;2023-02-19T09:18:31;102261.50;;;11.17;71.27
48614;BME280;34408;51.426;5.444;2023-02-19T09:20:59;102265.59;;;11.13;71.43
48614;BME280;34408;51.426;5.444;2023-02-19T09:23:28;102258.75;;;11.11;71.89
48614;BME280;34408;51.426;5.444;2023-02-19T09:25:56;102259.56;;;11.11;71.78
48614;BME280;34408;51.426;5.444;2023-02-19T09:28:25;102262.91;;;11.13;71.76
48614;BME280;34408;51.426;5.444;2023-02-19T09:30:53;102252.16;;;11.13;71.51
48614;BME280;34408;51.426;5.444;2023-02-19T09:33:21;102252.06;;;11.06;71.54
48614;BME280;34408;51.426;5.444;2023-02-19T09:35:50;102256.06;;;11.11;71.73
48614;BME280;34408;51.426;5.444;2023-02-19T09:38:18;102267.00;;;11.09;71.70
48614;BME280;34408;51.426;5.444;2023-02-19T09:40:46;102262.00;;;11.06;71.69
48614;BME280;34408;51.426;5.444;2023-02-19T09:43:17;102271.94;;;11.05;71.79
48614;BME280;34408;51.426;5.444;2023-02-19T09:45:46;102281.03;;;11.04;71.91
48614;BME280;34408;51.426;5.444;2023-02-19T09:48:14;102275.00;;;11.02;71.83
48614;BME280;34408;51.426;5.444;2023-02-19T09:50:44;102274.38;;;11.00;71.85
48614;BME280;34408;51.426;5.444;2023-02-19T09:53:18;102280.94;;;10.98;72.07
48614;BME280;34408;51.426;5.444;2023-02-19T09:55:47;102281.16;;;10.96;71.99
48614;BME280;34408;51.426;5.444;2023-02-19T09:58:23;102305.53;;;10.95;72.01
48614;BME280;34408;51.426;5.444;2023-02-19T10:00:54;102320.00;;;10.94;72.24
48614;BME280;34408;51.426;5.444;2023-02-19T10:03:23;102318.34;;;10.93;72.20
48614;BME280;34408;51.426;5.444;2023-02-19T10:05:58;102327.44;;;10.92;72.18
48614;BME280;34408;51.426;5.444;2023-02-19T10:08:31;102324.94;;;10.90;72.26
48614;BME280;34408;51.426;5.444;2023-02-19T10:11:00;102323.25;;;10.89;72.29
48614;BME280;34408;51.426;5.444;2023-02-19T10:13:31;102325.31;;;10.87;72.36
48614;BME280;34408;51.426;5.444;2023-02-19T10:16:00;102336.44;;;10.84;72.24
48614;BME280;34408;51.426;5.444;2023-02-19T10:18:37;102344.31;;;10.86;72.52
48614;BME280;34408;51.426;5.444;2023-02-19T10:21:05;102336.44;;;10.84;71.98
48614;BME280;34408;51.426;5.444;2023-02-19T10:23:35;102336.44;;;10.84;71.89
48614;BME280;34408;51.426;5.444;2023-02-19T10:26:02;102341.16;;;10.82;71.64
48614;BME280;34408;51.426;5.444;2023-02-19T10:28:32;102351.94;;;10.82;71.81
48614;BME280;34408;51.426;5.444;2023-02-19T10:31:03;102351.28;;;10.80;71.76
48614;BME280;34408;51.426;5.444;2023-02-19T10:33:31;102352.75;;;10.83;71.91
48614;BME280;34408;51.426;5.444;2023-02-19T10:36:01;102352.75;;;10.83;71.89
48614;BME280;34408;51.426;5.444;2023-02-19T10:38:31;102361.84;;;10.82;71.99
48614;BME280;34408;51.426;5.444;2023-02-19T10:41:04;102368.91;;;10.83;72.00
48614;BME280;34408;51.426;5.444;2023-02-19T10:43:35;102386.06;;;10.82;71.74
48614;BME280;34408;51.426;5.444;2023-02-19T10:46:06;102399.69;;;10.80;71.54
48614;BME280;34408;51.426;5.444;2023-02-19T10:48:36;102390.97;;;10.78;71.46
48614;BME280;34408;51.426;5.444;2023-02-19T10:51:07;102398.22;;;10.77;71.48
48614;BME280;34408;51.426;5.444;2023-02-19T10:53:44;102409.16;;;10.76;71.52
48614;BME280;34408;51.426;5.444;2023-02-19T10:56:15;102402.75;;;10.77;71.49
48614;BME280;34408;51.426;5.444;2023-02-19T10:58:48;102414.34;;;10.77;71.37
48614;BME280;34408;51.426;5.444;2023-02-19T11:01:19;102417.03;;;10.77;71.51
48614;BME280;34408;51.426;5.444;2023-02-19T11:03:49;102411.00;;;10.75;71.75
48614;BME280;34408;51.426;5.444;2023-02-19T11:06:19;102409.34;;;10.74;71.66
48614;BME280;34408;51.426;5.444;2023-02-19T11:08:54;102415.53;;;10.75;71.63
48614;BME280;34408;51.426;5.444;2023-02-19T11:11:27;102415.53;;;10.75;71.79
48614;BME280;34408;51.426;5.444;2023-02-19T11:13:57;102407.47;;;10.75;71.74
48614;BME280;34408;51.426;5.444;2023-02-19T11:16:37;102402.94;;;10.75;71.93
48614;BME280;34408;51.426;5.444;2023-02-19T11:19:21;102405.81;;;10.74;71.56
48614;BME280;34408;51.426;5.444;2023-02-19T11:21:49;102414.91;;;10.73;71.64
48614;BME280;34408;51.426;5.444;2023-02-19T11:24:25;102398.09;;;10.71;71.62
48614;BME280;34408;51.426;5.444;2023-02-19T11:26:57;102406.19;;;10.71;71.91
48614;BME280;34408;51.426;5.444;2023-02-19T11:29:25;102388.19;;;10.71;71.82
48614;BME280;34408;51.426;5.444;2023-02-19T11:31:55;102383.84;;;10.70;71.71
48614;BME280;34408;51.426;5.444;2023-02-19T11:34:28;102388.19;;;10.71;71.63
48614;BME280;34408;51.426;5.444;2023-02-19T11:37:10;102389.03;;;10.72;71.87
48614;BME280;34408;51.426;5.444;2023-02-19T11:39:40;102379.94;;;10.73;71.47
48614;BME280;34408;51.426;5.444;2023-02-19T11:42:32;102384.28;;;10.74;71.55
48614;BME280;34408;51.426;5.444;2023-02-19T11:45:21;102385.13;;;10.74;71.58
48614;BME280;34408;51.426;5.444;2023-02-19T11:48:17;102381.25;;;10.77;71.53
48614;BME280;34408;51.426;5.444;2023-02-19T11:50:55;102379.19;;;10.79;70.99
48614;BME280;34408;51.426;5.444;2023-02-19T11:53:27;102380.22;;;10.78;70.64
48614;BME280;34408;51.426;5.444;2023-02-19T11:56:09;102390.78;;;10.80;70.36
48614;BME280;34408;51.426;5.444;2023-02-19T12:01:52;102379.00;;;10.81;70.22
48614;BME280;34408;51.426;5.444;2023-02-19T12:04:48;102374.84;;;10.78;69.98
48614;BME280;34408;51.426;5.444;2023-02-19T12:07:34;102388.28;;;10.78;69.64
48614;BME280;34408;51.426;5.444;2023-02-19T12:10:10;102393.28;;;10.81;68.93
48614;BME280;34408;51.426;5.444;2023-02-19T12:12:56;102389.31;;;10.77;68.90
48614;BME280;34408;51.426;5.444;2023-02-19T12:15:40;102374.00;;;10.77;68.62
48614;BME280;34408;51.426;5.444;2023-02-19T12:18:37;102367.59;;;10.79;68.72
48614;BME280;34408;51.426;5.444;2023-02-19T12:21:19;102373.16;;;10.77;68.38
48614;BME280;34408;51.426;5.444;2023-02-19T12:26:43;102364.63;;;10.73;68.62
48614;BME280;34408;51.426;5.444;2023-02-19T12:29:26;102368.16;;;10.74;68.70
48614;BME280;34408;51.426;5.444;2023-02-19T12:32:25;102370.94;;;10.81;68.77
48614;BME280;34408;51.426;5.444;2023-02-19T12:35:16;102370.94;;;10.81;68.79
48614;BME280;34408;51.426;5.444;2023-02-19T12:37:54;102378.63;;;10.84;68.74
48614;BME280;34408;51.426;5.444;2023-02-19T12:40:43;102371.78;;;10.81;68.62
48614;BME280;34408;51.426;5.444;2023-02-19T12:43:16;102382.16;;;10.84;68.56
48614;BME280;34408;51.426;5.444;2023-02-19T12:45:49;102381.78;;;10.87;68.50
48614;BME280;34408;51.426;5.444;2023-02-19T12:48:26;102388.19;;;10.86;68.46
48614;BME280;34408;51.426;5.444;2023-02-19T12:50:58;102378.63;;;10.84;68.46
48614;BME280;34408;51.426;5.444;2023-02-19T12:53:36;102386.53;;;10.85;68.27
48614;BME280;34408;51.426;5.444;2023-02-19T12:56:11;102378.44;;;10.85;68.22
48614;BME280;34408;51.426;5.444;2023-02-19T12:58:43;102389.41;;;10.84;68.34
48614;BME280;34408;51.426;5.444;2023-02-19T13:01:15;102393.28;;;10.81;68.59
48614;BME280;34408;51.426;5.444;2023-02-19T13:03:50;102390.97;;;10.78;68.67
48614;BME280;34408;51.426;5.444;2023-02-19T13:06:29;102392.66;;;10.79;68.12
48614;BME280;34408;51.426;5.444;2023-02-19T13:09:02;102402.00;;;10.83;68.12
48614;BME280;34408;51.426;5.444;2023-02-19T13:11:37;102404.50;;;10.85;67.66
48614;BME280;34408;51.426;5.444;2023-02-19T13:14:14;102406.19;;;10.86;67.42
48614;BME280;34408;51.426;5.444;2023-02-19T13:16:48;102416.94;;;10.86;67.00
48614;BME280;34408;51.426;5.444;2023-02-19T13:19:18;102415.09;;;10.86;66.73
48614;BME280;34408;51.426;5.444;2023-02-19T13:21:51;102404.97;;;10.88;66.99